sensor_id;sensor_type;location;lat;lon;timestamp;pressure;altitude;pressure_sealevel;temperature;humidity
40692;BME280;26377;53.344;14.886;2022-07-15T00:00:07;101313.81;;;13.59;58.67
40692;BME280;26377;53.344;14.886;2022-07-15T00:02:37;101317.47;;;13.57;58.76
40692;BME280;26377;53.344;14.886;2022-07-15T00:05:07;101312.41;;;13.52;58.85
40692;BME280;26377;53.344;14.886;2022-07-15T00:07:36;101318.70;;;13.51;58.97
40692;BME280;26377;53.344;14.886;2022-07-15T00:10:06;101311.34;;;13.48;59.04
40692;BME280;26377;53.344;14.886;2022-07-15T00:12:51;101317.14;;;13.47;59.12
40692;BME280;26377;53.344;14.886;2022-07-15T00:15:22;101321.30;;;13.44;59.24
40692;BME280;26377;53.344;14.886;2022-07-15T00:17:51;101320.91;;;13.43;59.31
40692;BME280;26377;53.344;14.886;2022-07-15T00:20:22;101327.66;;;13.42;59.37
40692;BME280;26377;53.344;14.886;2022-07-15T00:22:50;101324.15;;;13.41;59.43
40692;BME280;26377;53.344;14.886;2022-07-15T00:25:19;101320.69;;;13.39;59.47
40692;BME280;26377;53.344;14.886;2022-07-15T00:27:59;101321.72;;;13.37;59.53
40692;BME280;26377;53.344;14.886;2022-07-15T00:30:36;101319.13;;;13.35;59.56
40692;BME280;26377;53.344;14.886;2022-07-15T00:33:05;101328.53;;;13.34;59.66
40692;BME280;26377;53.344;14.886;2022-07-15T00:35:36;101321.49;;;13.33;59.70
40692;BME280;26377;53.344;14.886;2022-07-15T00:38:07;101321.56;;;13.31;59.77
40692;BME280;26377;53.344;14.886;2022-07-15T00:40:43;101322.14;;;13.29;59.80
40692;BME280;26377;53.344;14.886;2022-07-15T00:43:13;101313.77;;;13.28;59.84
40692;BME280;26377;53.344;14.886;2022-07-15T00:45:45;101313.91;;;13.25;59.91
40692;BME280;26377;53.344;14.886;2022-07-15T00:48:13;101314.41;;;13.25;60.02
40692;BME280;26377;53.344;14.886;2022-07-15T00:50:40;101315.41;;;13.22;60.01
40692;BME280;26377;53.344;14.886;2022-07-15T00:53:22;101315.52;;;13.21;60.08
40692;BME280;26377;53.344;14.886;2022-07-15T00:55:47;101318.17;;;13.21;60.13
40692;BME280;26377;53.344;14.886;2022-07-15T00:58:21;101315.59;;;13.19;60.15
40692;BME280;26377;53.344;14.886;2022-07-15T01:00:52;101311.21;;;13.18;60.21
40692;BME280;26377;53.344;14.886;2022-07-15T01:03:22;101321.00;;;13.18;60.27
40692;BME280;26377;53.344;14.886;2022-07-15T01:05:54;101315.66;;;13.18;60.32
40692;BME280;26377;53.344;14.886;2022-07-15T01:08:21;101311.67;;;13.18;60.36
40692;BME280;26377;53.344;14.886;2022-07-15T01:10:50;101304.63;;;13.17;60.38
40692;BME280;26377;53.344;14.886;2022-07-15T01:13:18;101303.76;;;13.16;60.45
40692;BME280;26377;53.344;14.886;2022-07-15T01:15:48;101302.91;;;13.16;60.48
40692;BME280;26377;53.344;14.886;2022-07-15T01:18:16;101300.33;;;13.14;60.55
40692;BME280;26377;53.344;14.886;2022-07-15T01:20:45;101303.38;;;13.15;60.58
40692;BME280;26377;53.344;14.886;2022-07-15T01:23:12;101306.04;;;13.15;60.66
40692;BME280;26377;53.344;14.886;2022-07-15T01:25:41;101302.99;;;13.14;60.70
40692;BME280;26377;53.344;14.886;2022-07-15T01:28:12;101304.78;;;13.14;60.75
40692;BME280;26377;53.344;14.886;2022-07-15T01:30:43;101301.66;;;13.14;60.82
40692;BME280;26377;53.344;14.886;2022-07-15T01:33:12;101306.11;;;13.14;60.87
40692;BME280;26377;53.344;14.886;2022-07-15T01:35:41;101305.16;;;13.15;60.97
40692;BME280;26377;53.344;14.886;2022-07-15T01:38:10;101307.37;;;13.15;60.99
40692;BME280;26377;53.344;14.886;2022-07-15T01:40:38;101306.42;;;13.16;61.05
40692;BME280;26377;53.344;14.886;2022-07-15T01:43:05;101299.30;;;13.17;61.13
40692;BME280;26377;53.344;14.886;2022-07-15T01:45:42;101301.39;;;13.19;61.23
40692;BME280;26377;53.344;14.886;2022-07-15T01:48:14;101300.94;;;13.19;61.32
40692;BME280;26377;53.344;14.886;2022-07-15T01:51:02;101300.45;;;13.20;61.40
40692;BME280;26377;53.344;14.886;2022-07-15T01:53:30;101302.27;;;13.19;61.47
40692;BME280;26377;53.344;14.886;2022-07-15T01:55:57;101297.78;;;13.20;61.49
40692;BME280;26377;53.344;14.886;2022-07-15T01:58:25;101307.11;;;13.20;61.51
40692;BME280;26377;53.344;14.886;2022-07-15T02:00:58;101300.86;;;13.21;61.58
40692;BME280;26377;53.344;14.886;2022-07-15T02:03:26;101299.03;;;13.21;61.58
40692;BME280;26377;53.344;14.886;2022-07-15T02:05:55;101301.63;;;13.23;61.62
40692;BME280;26377;53.344;14.886;2022-07-15T02:08:24;101304.20;;;13.24;61.65
40692;BME280;26377;53.344;14.886;2022-07-15T02:10:52;101309.54;;;13.24;61.65
40692;BME280;26377;53.344;14.886;2022-07-15T02:13:20;101307.25;;;13.25;61.69
40692;BME280;26377;53.344;14.886;2022-07-15T02:15:52;101308.59;;;13.25;61.71
40692;BME280;26377;53.344;14.886;2022-07-15T02:18:20;101315.17;;;13.27;61.70
40692;BME280;26377;53.344;14.886;2022-07-15T02:20:47;101311.09;;;13.28;61.76
40692;BME280;26377;53.344;14.886;2022-07-15T02:23:15;101315.94;;;13.29;61.77
40692;BME280;26377;53.344;14.886;2022-07-15T02:25:45;101307.48;;;13.29;61.77
40692;BME280;26377;53.344;14.886;2022-07-15T02:28:16;101307.86;;;13.30;61.81
40692;BME280;26377;53.344;14.886;2022-07-15T02:30:46;101311.40;;;13.31;61.79
40692;BME280;26377;53.344;14.886;2022-07-15T02:33:15;101314.60;;;13.29;61.77
40692;BME280;26377;53.344;14.886;2022-07-15T02:35:44;101309.38;;;13.27;61.77
40692;BME280;26377;53.344;14.886;2022-07-15T02:38:16;101317.08;;;13.25;61.75
40692;BME280;26377;53.344;14.886;2022-07-15T02:40:44;101319.02;;;13.21;61.74
40692;BME280;26377;53.344;14.886;2022-07-15T02:43:11;101319.66;;;13.18;61.77
40692;BME280;26377;53.344;14.886;2022-07-15T02:45:42;101314.41;;;13.16;61.78
40692;BME280;26377;53.344;14.886;2022-07-15T02:48:10;101316.31;;;13.14;61.78
40692;BME280;26377;53.344;14.886;2022-07-15T02:50:42;101311.52;;;13.12;61.79
40692;BME280;26377;53.344;14.886;2022-07-15T02:53:10;101325.86;;;13.10;61.80
40692;BME280;26377;53.344;14.886;2022-07-15T02:55:38;101331.76;;;13.08;61.83
40692;BME280;26377;53.344;14.886;2022-07-15T02:58:06;101321.33;;;13.03;61.82
40692;BME280;26377;53.344;14.886;2022-07-15T03:00:33;101322.84;;;13.00;61.86
40692;BME280;26377;53.344;14.886;2022-07-15T03:03:03;101329.97;;;13.00;61.91
40692;BME280;26377;53.344;14.886;2022-07-15T03:05:36;101330.45;;;12.99;61.94
40692;BME280;26377;53.344;14.886;2022-07-15T03:08:06;101332.25;;;12.99;62.00
40692;BME280;26377;53.344;14.886;2022-07-15T03:10:33;101334.91;;;12.99;62.02
40692;BME280;26377;53.344;14.886;2022-07-15T03:13:04;101338.83;;;13.00;62.09
40692;BME280;26377;53.344;14.886;2022-07-15T03:15:32;101334.76;;;13.02;62.19
40692;BME280;26377;53.344;14.886;2022-07-15T03:18:01;101335.52;;;13.04;62.19
40692;BME280;26377;53.344;14.886;2022-07-15T03:20:31;101327.84;;;13.06;62.20
40692;BME280;26377;53.344;14.886;2022-07-15T03:23:02;101343.59;;;13.11;62.23
40692;BME280;26377;53.344;14.886;2022-07-15T03:25:29;101339.34;;;13.15;62.32
40692;BME280;26377;53.344;14.886;2022-07-15T03:27:58;101345.36;;;13.19;62.33
40692;BME280;26377;53.344;14.886;2022-07-15T03:30:27;101346.27;;;13.26;62.36
40692;BME280;26377;53.344;14.886;2022-07-15T03:32:56;101346.81;;;13.33;62.39
40692;BME280;26377;53.344;14.886;2022-07-15T03:35:24;101354.92;;;13.47;62.45
40692;BME280;26377;53.344;14.886;2022-07-15T03:37:54;101345.10;;;13.71;62.30
40692;BME280;26377;53.344;14.886;2022-07-15T03:40:23;101344.67;;;13.79;62.30
40692;BME280;26377;53.344;14.886;2022-07-15T03:42:50;101350.28;;;13.90;62.37
40692;BME280;26377;53.344;14.886;2022-07-15T03:45:17;101352.00;;;14.06;62.35
40692;BME280;26377;53.344;14.886;2022-07-15T03:47:44;101352.09;;;14.43;62.82
40692;BME280;26377;53.344;14.886;2022-07-15T03:50:13;101354.07;;;14.98;63.02
40692;BME280;26377;53.344;14.886;2022-07-15T03:52:42;101348.41;;;15.39;63.17
40692;BME280;26377;53.344;14.886;2022-07-15T03:55:11;101356.02;;;15.52;62.54
40692;BME280;26377;53.344;14.886;2022-07-15T03:57:39;101355.25;;;15.64;62.49
40692;BME280;26377;53.344;14.886;2022-07-15T04:00:07;101356.28;;;15.69;61.94
40692;BME280;26377;53.344;14.886;2022-07-15T04:02:41;101354.59;;;15.54;61.42
40692;BME280;26377;53.344;14.886;2022-07-15T04:05:10;101351.27;;;15.36;61.14
40692;BME280;26377;53.344;14.886;2022-07-15T04:07:39;101352.83;;;15.32;61.08
40692;BME280;26377;53.344;14.886;2022-07-15T04:10:08;101358.41;;;15.36;61.14
40692;BME280;26377;53.344;14.886;2022-07-15T04:12:39;101349.91;;;15.43;61.10
40692;BME280;26377;53.344;14.886;2022-07-15T04:15:09;101346.38;;;15.50;60.88
40692;BME280;26377;53.344;14.886;2022-07-15T04:17:36;101352.13;;;15.51;60.67
40692;BME280;26377;53.344;14.886;2022-07-15T04:20:05;101355.53;;;15.46;60.50
40692;BME280;26377;53.344;14.886;2022-07-15T04:22:41;101355.84;;;15.41;60.38
40692;BME280;26377;53.344;14.886;2022-07-15T04:25:11;101357.16;;;15.34;60.29
40692;BME280;26377;53.344;14.886;2022-07-15T04:27:40;101362.03;;;15.28;60.19
40692;BME280;26377;53.344;14.886;2022-07-15T04:30:10;101364.00;;;15.24;60.18
40692;BME280;26377;53.344;14.886;2022-07-15T04:32:42;101358.46;;;15.20;60.12
40692;BME280;26377;53.344;14.886;2022-07-15T04:35:12;101368.41;;;15.18;60.12
40692;BME280;26377;53.344;14.886;2022-07-15T04:37:40;101367.65;;;15.16;60.09
40692;BME280;26377;53.344;14.886;2022-07-15T04:40:09;101376.05;;;15.17;60.06
40692;BME280;26377;53.344;14.886;2022-07-15T04:42:42;101377.00;;;15.16;60.01
40692;BME280;26377;53.344;14.886;2022-07-15T04:45:11;101372.41;;;15.18;60.06
40692;BME280;26377;53.344;14.886;2022-07-15T04:47:40;101374.41;;;15.22;60.01
40692;BME280;26377;53.344;14.886;2022-07-15T04:50:11;101379.58;;;15.25;59.96
40692;BME280;26377;53.344;14.886;2022-07-15T04:52:58;101378.16;;;15.26;59.90
40692;BME280;26377;53.344;14.886;2022-07-15T04:55:26;101365.91;;;15.29;59.88
40692;BME280;26377;53.344;14.886;2022-07-15T04:57:56;101368.78;;;15.33;59.89
40692;BME280;26377;53.344;14.886;2022-07-15T05:00:27;101367.68;;;15.37;59.80
40692;BME280;26377;53.344;14.886;2022-07-15T05:02:55;101373.90;;;15.38;59.70
40692;BME280;26377;53.344;14.886;2022-07-15T05:05:22;101380.09;;;15.38;59.70
40692;BME280;26377;53.344;14.886;2022-07-15T05:07:51;101382.01;;;15.36;59.52
40692;BME280;26377;53.344;14.886;2022-07-15T05:10:20;101376.75;;;15.35;59.54
40692;BME280;26377;53.344;14.886;2022-07-15T05:12:53;101374.19;;;15.40;59.61
40692;BME280;26377;53.344;14.886;2022-07-15T05:15:22;101378.48;;;15.43;59.40
40692;BME280;26377;53.344;14.886;2022-07-15T05:17:50;101382.41;;;15.44;59.38
40692;BME280;26377;53.344;14.886;2022-07-15T05:20:20;101390.14;;;15.42;59.24
40692;BME280;26377;53.344;14.886;2022-07-15T05:22:51;101387.27;;;15.52;59.32
40692;BME280;26377;53.344;14.886;2022-07-15T05:25:20;101387.81;;;15.64;59.41
40692;BME280;26377;53.344;14.886;2022-07-15T05:27:52;101392.30;;;15.70;59.11
40692;BME280;26377;53.344;14.886;2022-07-15T05:30:20;101399.39;;;15.85;59.24
40692;BME280;26377;53.344;14.886;2022-07-15T05:32:47;101401.08;;;16.00;59.16
40692;BME280;26377;53.344;14.886;2022-07-15T05:35:16;101392.36;;;16.11;59.06
40692;BME280;26377;53.344;14.886;2022-07-15T05:37:45;101398.98;;;16.32;59.11
40692;BME280;26377;53.344;14.886;2022-07-15T05:40:16;101399.97;;;16.57;58.98
40692;BME280;26377;53.344;14.886;2022-07-15T05:42:49;101403.03;;;16.78;58.84
40692;BME280;26377;53.344;14.886;2022-07-15T05:45:17;101399.66;;;16.81;58.50
40692;BME280;26377;53.344;14.886;2022-07-15T05:47:50;101401.69;;;16.78;58.29
40692;BME280;26377;53.344;14.886;2022-07-15T05:50:24;101405.19;;;16.85;58.25
40692;BME280;26377;53.344;14.886;2022-07-15T05:52:53;101402.94;;;16.79;58.05
40692;BME280;26377;53.344;14.886;2022-07-15T05:55:24;101407.25;;;16.75;57.89
40692;BME280;26377;53.344;14.886;2022-07-15T05:57:52;101413.34;;;16.64;57.70
40692;BME280;26377;53.344;14.886;2022-07-15T06:00:24;101415.95;;;16.59;57.69
40692;BME280;26377;53.344;14.886;2022-07-15T06:02:51;101420.25;;;16.54;57.57
40692;BME280;26377;53.344;14.886;2022-07-15T06:05:22;101418.07;;;16.54;57.63
40692;BME280;26377;53.344;14.886;2022-07-15T06:07:54;101421.94;;;16.69;57.80
40692;BME280;26377;53.344;14.886;2022-07-15T06:10:28;101420.16;;;16.82;57.69
40692;BME280;26377;53.344;14.886;2022-07-15T06:12:57;101429.31;;;16.85;57.34
40692;BME280;26377;53.344;14.886;2022-07-15T06:15:24;101423.83;;;16.94;57.36
40692;BME280;26377;53.344;14.886;2022-07-15T06:17:52;101436.81;;;17.00;57.03
40692;BME280;26377;53.344;14.886;2022-07-15T06:20:23;101428.97;;;16.97;56.88
40692;BME280;26377;53.344;14.886;2022-07-15T06:22:50;101436.64;;;16.96;56.79
40692;BME280;26377;53.344;14.886;2022-07-15T06:25:18;101433.80;;;17.04;56.77
40692;BME280;26377;53.344;14.886;2022-07-15T06:27:48;101437.35;;;17.05;56.64
40692;BME280;26377;53.344;14.886;2022-07-15T06:30:16;101441.47;;;17.03;56.46
40692;BME280;26377;53.344;14.886;2022-07-15T06:32:45;101445.22;;;17.01;56.40
40692;BME280;26377;53.344;14.886;2022-07-15T06:35:14;101453.90;;;17.24;56.63
40692;BME280;26377;53.344;14.886;2022-07-15T06:37:44;101454.54;;;17.27;56.43
40692;BME280;26377;53.344;14.886;2022-07-15T06:40:13;101456.48;;;17.25;56.35
40692;BME280;26377;53.344;14.886;2022-07-15T06:42:43;101457.77;;;17.39;56.46
40692;BME280;26377;53.344;14.886;2022-07-15T06:45:14;101472.69;;;17.43;56.46
40692;BME280;26377;53.344;14.886;2022-07-15T06:47:42;101461.16;;;17.48;56.42
40692;BME280;26377;53.344;14.886;2022-07-15T06:50:13;101467.05;;;17.66;56.54
40692;BME280;26377;53.344;14.886;2022-07-15T06:52:42;101465.92;;;17.88;56.48
40692;BME280;26377;53.344;14.886;2022-07-15T06:55:09;101467.05;;;18.09;56.51
40692;BME280;26377;53.344;14.886;2022-07-15T06:57:39;101455.94;;;18.33;56.52
40692;BME280;26377;53.344;14.886;2022-07-15T07:00:09;101459.35;;;18.53;56.19
40692;BME280;26377;53.344;14.886;2022-07-15T07:02:39;101459.66;;;18.66;56.13
40692;BME280;26377;53.344;14.886;2022-07-15T07:05:07;101462.21;;;18.86;56.05
40692;BME280;26377;53.344;14.886;2022-07-15T07:07:35;101453.29;;;19.14;55.43
40692;BME280;26377;53.344;14.886;2022-07-15T07:10:02;101460.59;;;19.12;55.41
40692;BME280;26377;53.344;14.886;2022-07-15T07:12:32;101460.86;;;19.09;55.24
40692;BME280;26377;53.344;14.886;2022-07-15T07:14:59;101460.86;;;19.09;55.24
40692;BME280;26377;53.344;14.886;2022-07-15T07:17:29;101465.30;;;18.92;54.56
40692;BME280;26377;53.344;14.886;2022-07-15T07:19:57;101472.41;;;18.75;54.54
40692;BME280;26377;53.344;14.886;2022-07-15T07:22:24;101467.45;;;18.58;54.38
40692;BME280;26377;53.344;14.886;2022-07-15T07:24:55;101472.84;;;18.40;54.24
40692;BME280;26377;53.344;14.886;2022-07-15T07:27:24;101469.12;;;18.23;53.94
40692;BME280;26377;53.344;14.886;2022-07-15T07:29:52;101466.84;;;18.12;54.05
40692;BME280;26377;53.344;14.886;2022-07-15T07:32:19;101475.02;;;18.28;54.25
40692;BME280;26377;53.344;14.886;2022-07-15T07:34:46;101479.55;;;18.40;54.02
40692;BME280;26377;53.344;14.886;2022-07-15T07:37:13;101470.45;;;18.48;53.74
40692;BME280;26377;53.344;14.886;2022-07-15T07:39:42;101470.45;;;18.48;53.74
40692;BME280;26377;53.344;14.886;2022-07-15T07:42:10;101472.37;;;18.64;53.58
40692;BME280;26377;53.344;14.886;2022-07-15T07:44:39;101475.84;;;18.54;53.05
40692;BME280;26377;53.344;14.886;2022-07-15T07:47:08;101475.84;;;18.54;53.05
40692;BME280;26377;53.344;14.886;2022-07-15T07:49:35;101475.02;;;18.41;52.86
40692;BME280;26377;53.344;14.886;2022-07-15T07:52:03;101476.09;;;18.33;52.72
40692;BME280;26377;53.344;14.886;2022-07-15T07:54:32;101478.69;;;18.27;52.60
40692;BME280;26377;53.344;14.886;2022-07-15T07:57:01;101484.67;;;18.25;52.53
40692;BME280;26377;53.344;14.886;2022-07-15T07:59:28;101480.80;;;18.17;52.32
40692;BME280;26377;53.344;14.886;2022-07-15T08:01:59;101495.67;;;18.15;52.17
40692;BME280;26377;53.344;14.886;2022-07-15T08:04:27;101483.41;;;18.06;51.90
40692;BME280;26377;53.344;14.886;2022-07-15T08:06:57;101482.91;;;18.19;52.32
40692;BME280;26377;53.344;14.886;2022-07-15T08:09:26;101482.13;;;18.42;52.24
40692;BME280;26377;53.344;14.886;2022-07-15T08:11:53;101487.05;;;18.48;52.05
40692;BME280;26377;53.344;14.886;2022-07-15T08:14:23;101473.27;;;18.52;51.90
40692;BME280;26377;53.344;14.886;2022-07-15T08:16:53;101483.95;;;18.59;51.51
40692;BME280;26377;53.344;14.886;2022-07-15T08:19:20;101483.95;;;18.59;51.56
40692;BME280;26377;53.344;14.886;2022-07-15T08:21:49;101487.77;;;18.62;51.40
40692;BME280;26377;53.344;14.886;2022-07-15T08:24:17;101496.08;;;18.65;51.16
40692;BME280;26377;53.344;14.886;2022-07-15T08:26:44;101487.87;;;18.66;51.15
40692;BME280;26377;53.344;14.886;2022-07-15T08:29:16;101490.28;;;18.76;51.15
40692;BME280;26377;53.344;14.886;2022-07-15T08:31:45;101492.30;;;18.91;51.04
40692;BME280;26377;53.344;14.886;2022-07-15T08:34:13;101491.52;;;19.30;50.78
40692;BME280;26377;53.344;14.886;2022-07-15T08:36:41;101491.52;;;19.30;50.78
40692;BME280;26377;53.344;14.886;2022-07-15T08:39:12;101492.64;;;19.33;50.42
40692;BME280;26377;53.344;14.886;2022-07-15T08:41:41;101496.36;;;19.20;50.14
40692;BME280;26377;53.344;14.886;2022-07-15T08:44:09;101498.95;;;19.03;50.01
40692;BME280;26377;53.344;14.886;2022-07-15T08:46:37;101504.18;;;18.94;49.89
40692;BME280;26377;53.344;14.886;2022-07-15T08:49:10;101499.13;;;18.84;49.62
40692;BME280;26377;53.344;14.886;2022-07-15T08:51:46;101505.66;;;18.74;49.63
40692;BME280;26377;53.344;14.886;2022-07-15T08:54:13;101500.89;;;18.72;49.60
40692;BME280;26377;53.344;14.886;2022-07-15T08:56:41;101500.15;;;18.94;49.48
40692;BME280;26377;53.344;14.886;2022-07-15T08:59:10;101500.15;;;18.94;49.48
40692;BME280;26377;53.344;14.886;2022-07-15T09:01:43;101507.92;;;19.09;49.81
40692;BME280;26377;53.344;14.886;2022-07-15T09:04:13;101507.92;;;19.09;49.81
40692;BME280;26377;53.344;14.886;2022-07-15T09:06:47;101510.98;;;19.10;49.27
40692;BME280;26377;53.344;14.886;2022-07-15T09:09:31;101501.78;;;19.07;49.18
40692;BME280;26377;53.344;14.886;2022-07-15T09:14:34;101495.10;;;19.36;49.15
40692;BME280;26377;53.344;14.886;2022-07-15T09:22:53;101489.56;;;19.94;48.36
40692;BME280;26377;53.344;14.886;2022-07-15T09:25:24;101505.33;;;19.71;48.18
40692;BME280;26377;53.344;14.886;2022-07-15T09:27:54;101508.94;;;19.48;48.02
40692;BME280;26377;53.344;14.886;2022-07-15T09:33:16;101518.89;;;19.24;47.98
40692;BME280;26377;53.344;14.886;2022-07-15T09:36:08;101510.74;;;19.31;48.25
40692;BME280;26377;53.344;14.886;2022-07-15T09:38:52;101512.36;;;19.45;47.85
40692;BME280;26377;53.344;14.886;2022-07-15T09:44:18;101504.24;;;19.90;47.83
40692;BME280;26377;53.344;14.886;2022-07-15T09:46:51;101499.16;;;20.15;47.83
40692;BME280;26377;53.344;14.886;2022-07-15T09:52:09;101508.44;;;20.49;47.55
40692;BME280;26377;53.344;14.886;2022-07-15T09:54:40;101517.28;;;20.24;46.74
40692;BME280;26377;53.344;14.886;2022-07-15T09:57:12;101517.87;;;20.05;46.69
40692;BME280;26377;53.344;14.886;2022-07-15T09:59:46;101516.86;;;19.95;46.53
40692;BME280;26377;53.344;14.886;2022-07-15T10:02:15;101520.16;;;19.88;46.35
40692;BME280;26377;53.344;14.886;2022-07-15T10:04:44;101525.67;;;19.81;46.00
40692;BME280;26377;53.344;14.886;2022-07-15T10:07:16;101530.04;;;19.65;46.09
40692;BME280;26377;53.344;14.886;2022-07-15T10:09:44;101516.11;;;19.66;46.18
40692;BME280;26377;53.344;14.886;2022-07-15T10:12:20;101517.67;;;19.63;46.22
40692;BME280;26377;53.344;14.886;2022-07-15T10:15:14;101529.41;;;19.56;46.18
40692;BME280;26377;53.344;14.886;2022-07-15T10:21:02;101543.17;;;19.41;46.28
40692;BME280;26377;53.344;14.886;2022-07-15T10:29:17;101528.73;;;19.36;46.37
40692;BME280;26377;53.344;14.886;2022-07-15T10:31:55;101522.33;;;19.66;46.29
40692;BME280;26377;53.344;14.886;2022-07-15T10:34:36;101517.74;;;20.01;46.30
40692;BME280;26377;53.344;14.886;2022-07-15T10:37:06;101514.32;;;20.32;46.44
40692;BME280;26377;53.344;14.886;2022-07-15T10:39:51;101526.80;;;20.61;45.72
40692;BME280;26377;53.344;14.886;2022-07-15T10:42:20;101518.20;;;20.78;45.46
40692;BME280;26377;53.344;14.886;2022-07-15T10:47:30;101522.72;;;20.83;43.20
40692;BME280;26377;53.344;14.886;2022-07-15T10:49:58;101516.88;;;20.50;43.57
40692;BME280;26377;53.344;14.886;2022-07-15T10:52:28;101519.84;;;20.20;43.51
40692;BME280;26377;53.344;14.886;2022-07-15T10:55:00;101527.41;;;20.04;43.73
40692;BME280;26377;53.344;14.886;2022-07-15T11:03:10;101519.98;;;20.29;44.62
40692;BME280;26377;53.344;14.886;2022-07-15T11:13:48;101511.30;;;21.53;44.09
40692;BME280;26377;53.344;14.886;2022-07-15T11:16:19;101514.75;;;21.76;43.79
40692;BME280;26377;53.344;14.886;2022-07-15T11:18:56;101522.97;;;21.74;43.57
40692;BME280;26377;53.344;14.886;2022-07-15T11:21:23;101527.97;;;21.58;43.24
40692;BME280;26377;53.344;14.886;2022-07-15T11:23:51;101524.61;;;21.40;43.01
40692;BME280;26377;53.344;14.886;2022-07-15T11:26:22;101523.50;;;21.16;42.97
40692;BME280;26377;53.344;14.886;2022-07-15T11:28:56;101532.02;;;21.27;43.19
40692;BME280;26377;53.344;14.886;2022-07-15T11:31:25;101527.39;;;21.49;43.01
40692;BME280;26377;53.344;14.886;2022-07-15T11:33:53;101525.44;;;21.66;43.01
40692;BME280;26377;53.344;14.886;2022-07-15T11:36:23;101527.55;;;21.74;42.87
40692;BME280;26377;53.344;14.886;2022-07-15T11:38:52;101526.64;;;21.79;42.64
40692;BME280;26377;53.344;14.886;2022-07-15T11:41:20;101526.18;;;21.68;42.29
40692;BME280;26377;53.344;14.886;2022-07-15T11:44:09;101523.34;;;21.49;42.15
40692;BME280;26377;53.344;14.886;2022-07-15T11:46:57;101521.69;;;21.32;42.27
40692;BME280;26377;53.344;14.886;2022-07-15T11:49:29;101528.52;;;21.67;42.53
40692;BME280;26377;53.344;14.886;2022-07-15T11:51:59;101521.80;;;21.88;42.38
40692;BME280;26377;53.344;14.886;2022-07-15T11:54:30;101520.03;;;22.07;42.50
40692;BME280;26377;53.344;14.886;2022-07-15T11:57:00;101516.81;;;22.38;42.43
40692;BME280;26377;53.344;14.886;2022-07-15T11:59:30;101520.00;;;22.43;42.09
40692;BME280;26377;53.344;14.886;2022-07-15T12:02:02;101514.98;;;22.38;41.96
40692;BME280;26377;53.344;14.886;2022-07-15T12:04:33;101517.74;;;22.18;41.67
40692;BME280;26377;53.344;14.886;2022-07-15T12:07:01;101518.13;;;21.83;40.97
40692;BME280;26377;53.344;14.886;2022-07-15T12:09:46;101522.49;;;21.75;41.26
40692;BME280;26377;53.344;14.886;2022-07-15T12:12:16;101520.90;;;21.93;41.46
40692;BME280;26377;53.344;14.886;2022-07-15T12:14:48;101509.91;;;22.30;41.46
40692;BME280;26377;53.344;14.886;2022-07-15T12:17:17;101517.12;;;22.50;41.47
40692;BME280;26377;53.344;14.886;2022-07-15T12:19:48;101519.48;;;22.43;41.00
40692;BME280;26377;53.344;14.886;2022-07-15T12:22:21;101510.97;;;22.33;41.11
40692;BME280;26377;53.344;14.886;2022-07-15T12:24:50;101514.94;;;22.59;40.93
40692;BME280;26377;53.344;14.886;2022-07-15T12:27:34;101515.20;;;22.56;40.79
40692;BME280;26377;53.344;14.886;2022-07-15T12:30:05;101514.46;;;22.60;40.61
40692;BME280;26377;53.344;14.886;2022-07-15T12:32:35;101516.39;;;22.73;40.71
40692;BME280;26377;53.344;14.886;2022-07-15T12:35:05;101515.72;;;22.90;40.45
40692;BME280;26377;53.344;14.886;2022-07-15T12:40:10;101528.89;;;22.98;40.00
40692;BME280;26377;53.344;14.886;2022-07-15T12:42:41;101537.20;;;22.82;39.89
40692;BME280;26377;53.344;14.886;2022-07-15T12:45:22;101535.23;;;22.59;39.64
40692;BME280;26377;53.344;14.886;2022-07-15T12:48:06;101544.17;;;22.75;40.00
40692;BME280;26377;53.344;14.886;2022-07-15T12:53:24;101538.38;;;23.32;39.92
40692;BME280;26377;53.344;14.886;2022-07-15T12:55:52;101523.89;;;23.56;39.78
40692;BME280;26377;53.344;14.886;2022-07-15T12:58:27;101529.48;;;23.78;39.70
40692;BME280;26377;53.344;14.886;2022-07-15T13:03:37;101536.85;;;23.62;39.13
40692;BME280;26377;53.344;14.886;2022-07-15T13:06:05;101539.46;;;23.35;39.04
40692;BME280;26377;53.344;14.886;2022-07-15T13:08:35;101535.26;;;23.03;38.56
40692;BME280;26377;53.344;14.886;2022-07-15T13:11:07;101548.41;;;22.68;38.53
40692;BME280;26377;53.344;14.886;2022-07-15T13:13:37;101542.56;;;22.63;38.80
40692;BME280;26377;53.344;14.886;2022-07-15T13:16:08;101534.31;;;22.89;38.97
40692;BME280;26377;53.344;14.886;2022-07-15T13:18:36;101522.94;;;23.14;38.91
40692;BME280;26377;53.344;14.886;2022-07-15T13:21:05;101527.97;;;23.37;38.53
40692;BME280;26377;53.344;14.886;2022-07-15T13:23:32;101529.11;;;23.63;38.73
40692;BME280;26377;53.344;14.886;2022-07-15T13:26:02;101526.64;;;23.79;38.54
40692;BME280;26377;53.344;14.886;2022-07-15T13:28:29;101526.95;;;23.67;37.97
40692;BME280;26377;53.344;14.886;2022-07-15T13:30:58;101536.45;;;23.38;37.70
40692;BME280;26377;53.344;14.886;2022-07-15T13:33:26;101535.55;;;23.09;37.45
40692;BME280;26377;53.344;14.886;2022-07-15T13:35:55;101535.45;;;22.86;37.53
40692;BME280;26377;53.344;14.886;2022-07-15T13:38:24;101548.19;;;22.65;37.59
40692;BME280;26377;53.344;14.886;2022-07-15T13:40:52;101549.70;;;22.49;37.79
40692;BME280;26377;53.344;14.886;2022-07-15T13:43:21;101548.80;;;22.54;37.91
40692;BME280;26377;53.344;14.886;2022-07-15T13:45:48;101545.66;;;22.73;38.19